Time;durP1;ratioP1;P1;durP2;ratioP2;P2;SDS_P1;SDS_P2;PMS_P1;PMS_P2;Temp;Humidity;BMP_temperature;BMP_pressure;BME280_temperature;BME280_humidity;BME280_pressure;Samples;Min_cycle;Max_cycle;Signal;HPM_P1;HPM_P2
2022/08/21 00:00:31;;;;;;;2.67;0.77;;;27.90;46.60;;;;;;5042136;28;89970;-52
2022/08/21 00:03:02;;;;;;;2.40;1.00;;;27.90;46.60;;;;;;5042075;27;87158;-52
2022/08/21 00:05:31;;;;;;;1.17;0.70;;;27.90;46.60;;;;;;5042260;28;86999;-52
2022/08/21 00:07:59;;;;;;;0.70;0.70;;;27.90;46.60;;;;;;5045416;27;88278;-53
2022/08/21 00:10:27;;;;;;;1.40;0.77;;;27.90;46.60;;;;;;5062395;27;87168;-52
2022/08/21 00:12:55;;;;;;;0.57;0.50;;;27.90;46.60;;;;;;5062630;27;87035;-52
2022/08/21 00:15:25;;;;;;;2.63;0.50;;;27.90;46.60;;;;;;5062810;27;86231;-52
2022/08/21 00:17:53;;;;;;;0.60;0.60;;;27.90;46.60;;;;;;5061468;27;89088;-52
2022/08/21 00:20:23;;;;;;;1.63;0.70;;;27.90;46.70;;;;;;5061862;27;88333;-52
2022/08/21 00:22:51;;;;;;;0.73;0.70;;;27.90;46.70;;;;;;5061631;27;87926;-53
2022/08/21 00:25:19;;;;;;;0.60;0.60;;;27.90;46.70;;;;;;5043686;27;87127;-52
2022/08/21 00:27:51;;;;;;;2.07;0.77;;;27.90;46.70;;;;;;5041682;28;89199;-52
2022/08/21 00:30:19;;;;;;;1.07;0.60;;;27.90;46.70;;;;;;5041553;27;88883;-52
2022/08/21 00:32:50;;;;;;;0.60;0.60;;;27.90;46.70;;;;;;5042145;27;87052;-52
2022/08/21 00:35:20;;;;;;;2.40;0.80;;;27.90;46.70;;;;;;5041314;28;87113;-52
2022/08/21 00:37:49;;;;;;;0.60;0.43;;;27.90;46.70;;;;;;5041420;28;89117;-52
2022/08/21 00:40:19;;;;;;;4.60;0.50;;;27.90;46.80;;;;;;5041389;28;88161;-52
2022/08/21 00:42:47;;;;;;;0.73;0.53;;;27.90;46.70;;;;;;5042188;28;86767;-52
2022/08/21 00:45:20;;;;;;;1.37;0.63;;;27.80;46.70;;;;;;5042084;28;87096;-52
2022/08/21 00:47:48;;;;;;;1.40;0.77;;;27.80;46.70;;;;;;5041397;28;88943;-53
2022/08/21 00:50:16;;;;;;;1.10;0.73;;;27.80;46.70;;;;;;5041591;28;90018;-52
2022/08/21 00:52:50;;;;;;;1.43;0.70;;;27.80;46.70;;;;;;5041881;28;87025;-53
2022/08/21 00:55:19;;;;;;;0.67;0.60;;;27.80;46.70;;;;;;5042052;28;87090;-53
2022/08/21 00:57:50;;;;;;;2.10;0.60;;;27.80;46.70;;;;;;5041524;28;87938;-52
2022/08/21 01:00:20;;;;;;;2.20;0.67;;;27.80;46.70;;;;;;5040598;28;87855;-52
2022/08/21 01:02:48;;;;;;;0.67;0.67;;;27.80;46.80;;;;;;5041368;28;87926;-52
2022/08/21 01:05:16;;;;;;;1.77;0.60;;;27.80;46.80;;;;;;5041994;28;86249;-52
2022/08/21 01:07:44;;;;;;;0.73;0.70;;;27.80;46.80;;;;;;5041356;28;89203;-52
2022/08/21 01:10:14;;;;;;;0.30;0.30;;;27.80;46.70;;;;;;5060506;27;87898;-53
2022/08/21 01:12:51;;;;;;;1.87;0.90;;;27.70;46.70;;;;;;5060742;27;88097;-53
2022/08/21 01:15:19;;;;;;;0.90;0.60;;;27.80;46.70;;;;;;5061055;27;87053;-52
2022/08/21 01:17:48;;;;;;;0.37;0.37;;;27.80;46.80;;;;;;5061298;27;88056;-52
2022/08/21 01:20:17;;;;;;;1.13;0.87;;;27.80;46.70;;;;;;5061437;27;89120;-52
2022/08/21 01:22:46;;;;;;;0.53;0.53;;;27.70;46.70;;;;;;5061700;27;87401;-52
2022/08/21 01:25:15;;;;;;;1.77;0.77;;;27.80;46.80;;;;;;5061192;27;87040;-52
2022/08/21 01:27:43;;;;;;;0.77;0.70;;;27.80;46.80;;;;;;5061047;27;89220;-52
2022/08/21 01:30:14;;;;;;;7.30;0.97;;;27.80;46.80;;;;;;5060118;27;87900;-52
2022/08/21 01:32:42;;;;;;;1.73;0.70;;;27.80;46.80;;;;;;5040313;28;87713;-52
2022/08/21 01:35:11;;;;;;;2.20;1.20;;;27.70;46.70;;;;;;5041368;28;87951;-53
2022/08/21 01:37:39;;;;;;;0.63;0.60;;;27.70;47.40;;;;;;5040458;28;90212;-52
2022/08/21 01:40:10;;;;;;;0.83;0.67;;;27.80;46.70;;;;;;5057629;27;88881;-52
2022/08/21 01:42:38;;;;;;;1.20;1.10;;;27.70;46.70;;;;;;5061499;27;86995;-53
2022/08/21 01:45:07;;;;;;;1.47;0.63;;;27.70;46.70;;;;;;5061026;27;87915;-53
2022/08/21 01:47:34;;;;;;;2.83;1.00;;;27.70;46.70;;;;;;5061145;27;89184;-52
2022/08/21 01:50:03;;;;;;;3.80;0.77;;;27.70;46.80;;;;;;5045518;27;88883;-53
2022/08/21 01:52:31;;;;;;;0.53;0.53;;;27.70;46.80;;;;;;5041034;28;87031;-52
2022/08/21 01:54:59;;;;;;;0.70;0.60;;;27.70;46.80;;;;;;5040986;28;86293;-52
2022/08/21 01:57:29;;;;;;;0.63;0.60;;;27.70;46.80;;;;;;5040297;28;88092;-52
2022/08/21 01:59:57;;;;;;;0.90;0.77;;;27.70;46.80;;;;;;5040663;28;87002;-53
2022/08/21 02:02:25;;;;;;;0.40;0.40;;;27.60;46.70;;;;;;5040660;28;87816;-53
2022/08/21 02:04:53;;;;;;;1.40;0.87;;;27.70;47.50;;;;;;5040741;28;87105;-53
2022/08/21 02:07:21;;;;;;;1.03;0.77;;;27.70;46.80;;;;;;5040173;28;86983;-53
2022/08/21 02:09:49;;;;;;;0.83;0.60;;;27.60;46.80;;;;;;5053788;27;88897;-54
2022/08/21 02:12:17;;;;;;;0.50;0.50;;;27.70;46.90;;;;;;5061261;27;87019;-53
2022/08/21 02:14:46;;;;;;;1.97;0.70;;;27.60;46.80;;;;;;5061325;27;86995;-53
2022/08/21 02:17:14;;;;;;;0.93;0.40;;;27.60;47.60;;;;;;5061193;27;88004;-53
2022/08/21 02:19:43;;;;;;;2.07;0.63;;;27.60;46.90;;;;;;5046408;27;87806;-54
2022/08/21 02:22:11;;;;;;;2.30;1.00;;;27.60;46.90;;;;;;5039118;28;87025;-55
2022/08/21 02:24:39;;;;;;;0.90;0.60;;;27.60;46.90;;;;;;5039705;28;87134;-54
2022/08/21 02:27:22;;;;;;;0.60;0.53;;;27.60;47.00;;;;;;5039343;28;90875;-54
2022/08/21 02:29:56;;;;;;;1.47;1.00;;;27.60;47.00;;;;;;5043548;28;88660;-54
2022/08/21 02:32:24;;;;;;;2.20;0.80;;;27.50;46.90;;;;;;5043917;28;86912;-54
2022/08/21 02:34:52;;;;;;;2.13;0.63;;;27.50;46.90;;;;;;5043015;28;87285;-54
2022/08/21 02:37:20;;;;;;;1.60;0.80;;;27.50;47.00;;;;;;5042000;28;89282;-53
2022/08/21 02:39:49;;;;;;;1.63;0.63;;;27.50;47.00;;;;;;5041481;28;87922;-53
2022/08/21 02:42:17;;;;;;;2.20;0.77;;;27.50;47.00;;;;;;5042626;28;87000;-53
2022/08/21 02:44:45;;;;;;;1.47;0.70;;;27.50;47.00;;;;;;5043108;28;86232;-54
2022/08/21 02:47:15;;;;;;;1.67;0.97;;;27.50;47.00;;;;;;5042719;28;88253;-53
2022/08/21 02:49:43;;;;;;;0.67;0.60;;;27.50;47.00;;;;;;5040411;28;88005;-53
2022/08/21 02:52:11;;;;;;;1.07;0.67;;;27.50;47.10;;;;;;5042655;28;88070;-53
2022/08/21 02:54:39;;;;;;;6.43;1.00;;;27.50;47.00;;;;;;5043300;28;87097;-53
2022/08/21 02:57:08;;;;;;;1.77;0.80;;;27.50;47.00;;;;;;5042514;28;88438;-53
2022/08/21 02:59:36;;;;;;;2.17;1.10;;;27.50;47.10;;;;;;5042772;28;87934;-52
2022/08/21 03:02:04;;;;;;;2.90;0.90;;;27.50;47.10;;;;;;5050076;27;87115;-52
2022/08/21 03:04:34;;;;;;;1.93;0.90;;;27.50;47.10;;;;;;5053896;27;87183;-52
2022/08/21 03:07:02;;;;;;;0.73;0.63;;;27.50;47.10;;;;;;5051009;27;88243;-53
2022/08/21 03:09:31;;;;;;;1.37;0.83;;;27.50;47.10;;;;;;5049581;27;87922;-52
2022/08/21 03:11:59;;;;;;;4.40;0.73;;;27.50;47.10;;;;;;5052135;27;87018;-52
2022/08/21 03:14:27;;;;;;;1.23;0.70;;;27.50;47.10;;;;;;5053282;27;87169;-52
2022/08/21 03:16:55;;;;;;;2.40;0.77;;;27.50;47.10;;;;;;5051108;27;89083;-53
2022/08/21 03:19:23;;;;;;;1.17;0.73;;;27.50;47.20;;;;;;5054489;27;88694;-53
2022/08/21 03:21:53;;;;;;;0.93;0.60;;;27.40;47.10;;;;;;5051032;27;87002;-52
2022/08/21 03:24:21;;;;;;;2.40;0.73;;;27.40;47.10;;;;;;5052592;27;87060;-53
2022/08/21 03:26:49;;;;;;;0.60;0.60;;;27.40;47.10;;;;;;5041846;28;89176;-53
2022/08/21 03:29:17;;;;;;;1.17;0.77;;;27.40;47.20;;;;;;5042881;28;88951;-52
2022/08/21 03:31:45;;;;;;;1.47;0.60;;;27.40;47.20;;;;;;5043140;28;86885;-53
2022/08/21 03:34:13;;;;;;;2.83;0.53;;;27.40;47.20;;;;;;5041840;28;87672;-53
2022/08/21 03:36:41;;;;;;;0.97;0.70;;;27.40;47.20;;;;;;5037837;28;89119;-54
2022/08/21 03:39:11;;;;;;;1.00;0.60;;;27.40;47.20;;;;;;5041314;28;87713;-54
2022/08/21 03:41:39;;;;;;;3.97;0.80;;;27.40;47.20;;;;;;5040949;28;87882;-52
2022/08/21 03:44:07;;;;;;;0.90;0.70;;;27.40;47.90;;;;;;5041441;28;87059;-53
2022/08/21 03:46:35;;;;;;;1.67;0.90;;;27.40;47.20;;;;;;5040785;28;88259;-53
2022/08/21 03:49:03;;;;;;;1.53;1.10;;;27.40;47.20;;;;;;5039042;28;87789;-54
2022/08/21 03:51:33;;;;;;;2.20;0.70;;;27.30;47.20;;;;;;5038946;28;87285;-53
2022/08/21 03:54:01;;;;;;;0.83;0.73;;;27.30;47.20;;;;;;5041394;28;87070;-53
2022/08/21 03:56:31;;;;;;;1.33;0.80;;;27.30;47.30;;;;;;5039764;28;87096;-53
2022/08/21 03:58:59;;;;;;;1.10;0.50;;;27.30;47.30;;;;;;5042425;28;88093;-53
2022/08/21 04:01:28;;;;;;;1.60;0.80;;;27.30;47.30;;;;;;5041359;28;87326;-53
2022/08/21 04:03:56;;;;;;;3.93;0.80;;;27.30;47.30;;;;;;5041368;28;87150;-53
2022/08/21 04:06:24;;;;;;;1.53;0.60;;;27.30;47.40;;;;;;5040507;28;89252;-53
2022/08/21 04:08:53;;;;;;;1.70;1.00;;;27.30;47.40;;;;;;5041412;27;92831;-52
2022/08/21 04:11:21;;;;;;;2.57;1.10;;;27.30;47.40;;;;;;5041825;27;87026;-53
2022/08/21 04:13:50;;;;;;;0.97;0.60;;;27.30;47.40;;;;;;5038095;28;86941;-53
2022/08/21 04:16:19;;;;;;;0.57;0.53;;;27.30;47.40;;;;;;5041874;28;87038;-53
2022/08/21 04:18:47;;;;;;;1.57;0.80;;;27.20;47.40;;;;;;5042692;28;88239;-53
2022/08/21 04:21:15;;;;;;;3.37;0.90;;;27.20;47.50;;;;;;5040139;28;87155;-53
2022/08/21 04:23:43;;;;;;;1.03;0.50;;;27.20;47.50;;;;;;5040883;28;86280;-53
2022/08/21 04:26:12;;;;;;;1.17;0.63;;;27.20;47.50;;;;;;5041460;28;88003;-53
2022/08/21 04:28:40;;;;;;;1.50;0.67;;;27.20;47.50;;;;;;5040707;28;87750;-53
2022/08/21 04:31:09;;;;;;;4.00;0.97;;;27.20;47.50;;;;;;5039697;28;88044;-54
2022/08/21 04:33:37;;;;;;;1.57;0.73;;;27.20;47.50;;;;;;5040994;28;87503;-53
2022/08/21 04:36:06;;;;;;;1.00;0.47;;;27.20;47.50;;;;;;5040466;28;89141;-54
2022/08/21 04:38:34;;;;;;;2.77;0.73;;;27.20;47.50;;;;;;5035969;28;88419;-52
2022/08/21 04:41:05;;;;;;;2.40;0.80;;;27.20;47.50;;;;;;5019764;28;87011;-54
2022/08/21 04:43:33;;;;;;;3.43;0.73;;;27.20;47.50;;;;;;5020261;28;87032;-53
2022/08/21 04:46:01;;;;;;;1.13;0.50;;;27.20;47.50;;;;;;5020621;28;87898;-53
2022/08/21 04:48:30;;;;;;;0.83;0.60;;;27.20;47.80;;;;;;5020297;28;88773;-53
2022/08/21 04:51:00;;;;;;;2.57;0.70;;;27.20;47.50;;;;;;5020671;28;87085;-52
2022/08/21 04:53:32;;;;;;;1.93;1.00;;;27.20;47.50;;;;;;5016595;28;87010;-52
2022/08/21 04:56:04;;;;;;;3.33;0.60;;;27.20;48.10;;;;;;5019008;28;90173;-53
2022/08/21 04:58:33;;;;;;;1.30;0.80;;;27.20;47.50;;;;;;5009242;28;88884;-52
2022/08/21 05:01:01;;;;;;;1.70;0.60;;;27.20;47.50;;;;;;5010625;28;87330;-52
2022/08/21 05:03:31;;;;;;;0.60;0.60;;;27.20;47.50;;;;;;5017577;28;87012;-53
2022/08/21 05:05:59;;;;;;;1.43;0.50;;;27.30;47.50;;;;;;5019591;28;88151;-52
2022/08/21 05:08:27;;;;;;;3.80;1.10;;;27.30;47.40;;;;;;5019084;28;88407;-54
2022/08/21 05:10:55;;;;;;;0.70;0.70;;;27.30;47.40;;;;;;5021366;28;87022;-53
2022/08/21 05:13:27;;;;;;;1.47;0.80;;;27.40;47.40;;;;;;5019926;28;86324;-53
2022/08/21 05:15:55;;;;;;;1.10;1.00;;;27.40;47.30;;;;;;5019393;28;89208;-52
2022/08/21 05:18:24;;;;;;;3.20;1.00;;;27.50;47.30;;;;;;5019519;28;88883;-54
2022/08/21 05:20:53;;;;;;;3.73;0.97;;;27.50;47.30;;;;;;5018641;28;88023;-53
2022/08/21 05:23:21;;;;;;;1.87;1.07;;;27.50;47.20;;;;;;5018779;28;87382;-52
2022/08/21 05:25:50;;;;;;;2.90;1.17;;;27.50;47.20;;;;;;5017069;28;89188;-52
2022/08/21 05:28:18;;;;;;;0.60;0.50;;;27.50;47.20;;;;;;5011194;28;87974;-52
2022/08/21 05:30:46;;;;;;;1.40;0.83;;;27.60;47.30;;;;;;5020102;28;87087;-53
2022/08/21 05:33:14;;;;;;;1.00;0.47;;;27.60;47.30;;;;;;5019799;28;87006;-52
2022/08/21 05:35:42;;;;;;;0.83;0.60;;;27.60;47.20;;;;;;5019833;28;89120;-53
2022/08/21 05:38:12;;;;;;;3.87;0.80;;;27.60;47.10;;;;;;5019642;28;87810;-53
2022/08/21 05:40:45;;;;;;;2.37;0.67;;;27.60;47.10;;;;;;5040025;27;87268;-52
2022/08/21 05:43:13;;;;;;;1.70;1.07;;;27.70;47.10;;;;;;5039559;28;86918;-54
2022/08/21 05:45:41;;;;;;;1.47;0.70;;;27.70;47.10;;;;;;5038710;28;89065;-53
2022/08/21 05:48:12;;;;;;;0.87;0.70;;;27.70;47.10;;;;;;5039067;28;89858;-53
2022/08/21 05:50:40;;;;;;;0.40;0.40;;;27.70;47.00;;;;;;5040516;28;86955;-53
2022/08/21 05:53:09;;;;;;;1.10;0.60;;;27.70;47.00;;;;;;5037493;28;87053;-52
2022/08/21 05:55:38;;;;;;;0.97;0.63;;;27.70;47.00;;;;;;5040885;28;88146;-52
2022/08/21 05:58:13;;;;;;;1.40;0.60;;;27.70;47.00;;;;;;5040121;28;88745;-52
2022/08/21 06:00:41;;;;;;;1.17;0.60;;;27.70;47.00;;;;;;5042343;28;87087;-53
2022/08/21 06:03:12;;;;;;;3.03;0.90;;;27.80;47.00;;;;;;5043468;28;86393;-53
2022/08/21 06:05:40;;;;;;;0.93;0.60;;;27.80;47.00;;;;;;5042761;28;89285;-52
2022/08/21 06:08:08;;;;;;;3.27;1.47;;;27.80;46.90;;;;;;5043311;28;88963;-52
2022/08/21 06:10:37;;;;;;;3.87;2.00;;;27.70;46.90;;;;;;5051712;27;87962;-52
2022/08/21 06:13:05;;;;;;;4.77;2.13;;;27.80;47.00;;;;;;5063938;27;87060;-53
2022/08/21 06:15:33;;;;;;;1.63;1.53;;;27.80;47.00;;;;;;5063891;27;88211;-53
2022/08/21 06:18:01;;;;;;;3.60;1.80;;;27.80;47.10;;;;;;5063628;27;88800;-52
2022/08/21 06:20:29;;;;;;;2.03;1.37;;;27.80;47.10;;;;;;5063758;27;87043;-52
2022/08/21 06:22:57;;;;;;;5.50;1.57;;;27.80;47.70;;;;;;5063545;27;86867;-52
2022/08/21 06:25:26;;;;;;;2.23;1.27;;;27.80;47.00;;;;;;5064036;27;88555;-52
2022/08/21 06:28:01;;;;;;;1.97;1.30;;;27.80;47.10;;;;;;5064522;27;89160;-52
2022/08/21 06:30:29;;;;;;;2.30;0.90;;;27.80;47.10;;;;;;5059199;27;87089;-52
2022/08/21 06:32:57;;;;;;;2.40;1.37;;;27.80;47.00;;;;;;5043247;28;86965;-53
2022/08/21 06:35:26;;;;;;;1.60;0.93;;;27.80;47.00;;;;;;5043138;28;88955;-53
2022/08/21 06:37:54;;;;;;;5.17;1.20;;;27.80;47.00;;;;;;5043786;28;88743;-53
2022/08/21 06:40:22;;;;;;;4.70;1.53;;;27.90;47.00;;;;;;5042403;28;87116;-52
2022/08/21 06:42:51;;;;;;;2.60;0.90;;;27.90;47.00;;;;;;5042303;28;87026;-52
2022/08/21 06:45:22;;;;;;;0.97;0.87;;;27.90;47.70;;;;;;5042643;28;88053;-52
2022/08/21 06:47:50;;;;;;;1.73;1.20;;;27.90;47.10;;;;;;5042635;28;88019;-52
2022/08/21 06:50:19;;;;;;;2.10;0.90;;;27.90;47.00;;;;;;5042723;28;87810;-52
2022/08/21 06:52:47;;;;;;;1.57;1.17;;;27.90;47.00;;;;;;5043123;28;86242;-52
2022/08/21 06:55:15;;;;;;;1.40;0.90;;;27.90;47.00;;;;;;5050278;27;88250;-53
2022/08/21 06:57:49;;;;;;;1.20;1.10;;;27.90;47.00;;;;;;5062943;27;89006;-52
2022/08/21 07:00:21;;;;;;;2.30;1.27;;;27.90;47.00;;;;;;5045418;27;88015;-51
2022/08/21 07:02:49;;;;;;;5.20;1.67;;;27.90;47.10;;;;;;5042732;28;87144;-52
2022/08/21 07:05:17;;;;;;;0.90;0.90;;;27.90;47.10;;;;;;5043220;28;89316;-52
2022/08/21 07:07:45;;;;;;;1.03;0.43;;;27.90;47.10;;;;;;5043035;28;88800;-52
2022/08/21 07:10:14;;;;;;;0.80;0.50;;;27.90;47.10;;;;;;5039303;28;86845;-51
2022/08/21 07:12:49;;;;;;;0.53;0.50;;;27.90;47.10;;;;;;5021471;28;87030;-53
2022/08/21 07:15:29;;;;;;;1.70;0.70;;;27.90;47.10;;;;;;5022414;28;88035;-51
2022/08/21 07:17:57;;;;;;;1.30;1.07;;;27.90;47.10;;;;;;5022914;28;88933;-51
2022/08/21 07:20:26;;;;;;;0.80;0.80;;;27.90;47.10;;;;;;5023163;28;86920;-52
2022/08/21 07:22:54;;;;;;;1.27;1.00;;;27.90;47.10;;;;;;5022628;28;87190;-52
2022/08/21 07:25:22;;;;;;;2.30;0.80;;;27.90;47.80;;;;;;5021610;28;89158;-52
2022/08/21 07:27:50;;;;;;;1.53;0.80;;;27.90;47.20;;;;;;5021111;28;89793;-51
2022/08/21 07:30:18;;;;;;;2.57;0.60;;;27.90;47.30;;;;;;5031300;28;87034;-52
2022/08/21 07:32:49;;;;;;;1.37;0.83;;;27.90;47.30;;;;;;5042425;28;87136;-52
2022/08/21 07:35:17;;;;;;;2.10;0.90;;;27.90;47.30;;;;;;5042743;28;88045;-52
2022/08/21 07:37:45;;;;;;;2.00;0.60;;;27.90;47.30;;;;;;5040246;28;88987;-52
2022/08/21 07:40:13;;;;;;;0.80;0.70;;;27.80;47.30;;;;;;5037014;28;87951;-51
2022/08/21 07:42:42;;;;;;;0.60;0.60;;;27.90;47.30;;;;;;5040066;28;88200;-52
2022/08/21 07:45:10;;;;;;;0.63;0.60;;;27.90;47.30;;;;;;5042270;28;88181;-52
2022/08/21 07:47:39;;;;;;;3.40;0.67;;;27.90;47.40;;;;;;5041869;28;88004;-52
2022/08/21 07:50:11;;;;;;;0.40;0.40;;;27.90;47.40;;;;;;5042372;28;87899;-52
2022/08/21 07:52:39;;;;;;;0.80;0.50;;;27.90;47.40;;;;;;5042107;28;87038;-52
2022/08/21 07:55:08;;;;;;;1.03;0.70;;;27.90;47.40;;;;;;5042242;28;89236;-52
2022/08/21 07:57:36;;;;;;;2.67;0.47;;;27.90;47.50;;;;;;5042141;28;88853;-52
2022/08/21 08:00:05;;;;;;;2.43;0.60;;;27.90;47.50;;;;;;5042266;28;86886;-52
2022/08/21 08:02:33;;;;;;;1.70;0.70;;;27.90;47.70;;;;;;5042148;28;87076;-53
2022/08/21 08:05:01;;;;;;;3.00;0.70;;;27.90;47.70;;;;;;5040383;27;87461;-51
2022/08/21 08:07:31;;;;;;;2.60;0.53;;;27.90;47.80;;;;;;5041003;28;88129;-51
2022/08/21 08:09:59;;;;;;;2.10;0.93;;;27.90;47.90;;;;;;5041211;28;87045;-52
2022/08/21 08:12:29;;;;;;;1.10;0.73;;;27.80;47.90;;;;;;5060392;27;86989;-53
2022/08/21 08:14:57;;;;;;;1.00;0.90;;;27.80;48.00;;;;;;5059052;27;89029;-52
2022/08/21 08:17:25;;;;;;;2.60;1.23;;;27.80;48.20;;;;;;5040867;28;88765;-52
2022/08/21 08:19:53;;;;;;;2.80;0.60;;;27.80;48.30;;;;;;5040918;28;87140;-52
2022/08/21 08:22:23;;;;;;;4.53;1.10;;;27.80;48.30;;;;;;5040617;28;89058;-53
2022/08/21 08:24:54;;;;;;;4.33;1.07;;;27.80;48.40;;;;;;5040705;27;89380;-54
2022/08/21 08:27:22;;;;;;;2.90;1.20;;;27.80;48.50;;;;;;5040565;28;87822;-53
2022/08/21 08:29:50;;;;;;;3.80;1.83;;;27.80;48.50;;;;;;5041271;28;86981;-53
2022/08/21 08:32:18;;;;;;;1.23;1.13;;;27.80;48.60;;;;;;5040830;28;86308;-54
2022/08/21 08:34:51;;;;;;;4.70;0.90;;;27.80;48.60;;;;;;5039913;28;89101;-53
2022/08/21 08:37:19;;;;;;;1.27;0.60;;;27.80;49.30;;;;;;5039525;28;87692;-53
2022/08/21 08:39:50;;;;;;;0.90;0.90;;;27.80;48.70;;;;;;5037966;28;88102;-52
2022/08/21 08:42:24;;;;;;;2.40;1.00;;;27.80;48.70;;;;;;5038132;28;87127;-53
2022/08/21 08:45:03;;;;;;;3.50;1.30;;;27.80;48.80;;;;;;5053002;27;87664;-54
2022/08/21 08:47:31;;;;;;;2.87;1.47;;;27.80;48.80;;;;;;5038919;28;88996;-54
2022/08/21 08:50:03;;;;;;;3.80;1.93;;;27.80;48.80;;;;;;5038886;28;87594;-53
2022/08/21 08:52:33;;;;;;;6.00;1.53;;;27.80;48.80;;;;;;5039758;28;87602;-53
2022/08/21 08:55:04;;;;;;;4.37;1.80;;;27.80;48.80;;;;;;5040934;28;88211;-53
2022/08/21 08:57:33;;;;;;;1.40;1.10;;;27.80;48.80;;;;;;5039602;28;88999;-52
2022/08/21 09:00:03;;;;;;;3.33;1.27;;;27.80;48.80;;;;;;5041780;28;87048;-52
2022/08/21 09:02:33;;;;;;;3.07;1.27;;;28.00;49.00;;;;;;5041161;28;86918;-53
2022/08/21 09:05:01;;;;;;;3.83;1.40;;;27.80;48.80;;;;;;5040312;28;89020;-52
2022/08/21 09:07:34;;;;;;;2.30;1.10;;;27.80;48.80;;;;;;5040691;28;90168;-52
2022/08/21 09:10:07;;;;;;;3.40;1.03;;;27.80;48.80;;;;;;5041320;28;86979;-56
2022/08/21 09:12:41;;;;;;;1.40;0.93;;;27.80;48.80;;;;;;5040997;28;87133;-52
2022/08/21 09:15:16;;;;;;;2.97;1.17;;;27.80;48.80;;;;;;5040472;28;88114;-53
2022/08/21 09:18:08;;;;;;;2.37;1.40;;;27.80;48.70;;;;;;5040574;28;88124;-52
2022/08/21 09:20:39;;;;;;;3.53;1.33;;;27.80;49.40;;;;;;5039883;27;87052;-53
2022/08/21 09:23:13;;;;;;;2.30;1.30;;;27.80;48.70;;;;;;5040359;28;86281;-53
2022/08/21 09:25:43;;;;;;;1.90;0.93;;;27.80;48.80;;;;;;5040284;28;89367;-53
2022/08/21 09:28:14;;;;;;;5.00;1.57;;;27.80;48.70;;;;;;5040578;28;87725;-53
2022/08/21 09:30:42;;;;;;;0.87;0.87;;;27.80;48.80;;;;;;5040133;28;88051;-53
2022/08/21 09:33:12;;;;;;;1.30;0.70;;;27.90;48.70;;;;;;5041422;28;87010;-53
2022/08/21 09:35:49;;;;;;;2.00;0.93;;;27.90;48.70;;;;;;5041506;27;89442;-53
2022/08/21 09:38:26;;;;;;;1.77;1.07;;;27.80;48.70;;;;;;5043494;28;88855;-53
2022/08/21 09:40:58;;;;;;;2.63;0.67;;;27.80;48.70;;;;;;5043507;28;87093;-53
2022/08/21 09:43:27;;;;;;;0.87;0.50;;;27.80;48.70;;;;;;5044641;28;86922;-53
2022/08/21 09:46:10;;;;;;;0.77;0.43;;;27.80;48.70;;;;;;5044064;28;89066;-54
2022/08/21 09:48:43;;;;;;;0.63;0.33;;;27.80;48.60;;;;;;5044766;28;86479;-52
2022/08/21 09:51:13;;;;;;;2.00;0.60;;;27.80;48.60;;;;;;5043292;28;87548;-53
2022/08/21 09:53:45;;;;;;;2.23;0.63;;;27.90;48.60;;;;;;5043563;28;87037;-54
2022/08/21 09:59:19;;;;;;;1.37;0.47;;;28.00;48.50;;;;;;5042533;28;89823;-52
2022/08/21 10:01:48;;;;;;;1.33;0.57;;;28.00;48.50;;;;;;5043529;28;86994;-52
2022/08/21 10:04:16;;;;;;;2.60;0.67;;;28.10;48.50;;;;;;5043903;28;86971;-52
2022/08/21 10:06:44;;;;;;;1.50;0.40;;;28.10;48.50;;;;;;5043549;28;87482;-53
2022/08/21 10:09:14;;;;;;;1.37;0.70;;;28.10;48.40;;;;;;5043211;28;86922;-53
2022/08/21 10:11:53;;;;;;;2.30;0.60;;;28.10;48.40;;;;;;5040748;28;87132;-52
2022/08/21 10:14:53;;;;;;;0.90;0.50;;;28.10;48.40;;;;;;5040041;28;86398;-52
2022/08/21 10:17:28;;;;;;;1.70;0.90;;;28.10;48.30;;;;;;5043600;28;87082;-52
2022/08/21 10:20:01;;;;;;;0.40;0.40;;;28.10;48.20;;;;;;5043483;28;87935;-52
2022/08/21 10:22:35;;;;;;;0.77;0.50;;;28.20;48.30;;;;;;5043699;28;88089;-52
2022/08/21 10:25:08;;;;;;;0.63;0.57;;;28.20;48.20;;;;;;5042990;28;87008;-51
2022/08/21 10:27:42;;;;;;;0.57;0.57;;;28.20;48.20;;;;;;5043447;28;87032;-52
2022/08/21 10:30:13;;;;;;;0.57;0.37;;;28.20;48.10;;;;;;5043788;28;88833;-52
2022/08/21 10:32:51;;;;;;;0.57;0.40;;;28.20;48.00;;;;;;5043653;28;87036;-51
2022/08/21 10:35:22;;;;;;;1.23;0.70;;;28.30;48.10;;;;;;5043270;28;87999;-51
2022/08/21 10:37:58;;;;;;;1.77;0.77;;;28.30;48.00;;;;;;5043045;28;89227;-53
2022/08/21 10:40:28;;;;;;;4.83;0.50;;;28.30;47.90;;;;;;5042536;28;89200;-51
2022/08/21 10:43:13;;;;;;;0.70;0.40;;;28.30;47.80;;;;;;5059578;27;86949;-52
2022/08/21 10:45:50;;;;;;;0.50;0.47;;;28.30;47.80;;;;;;5063281;27;87069;-52
2022/08/21 10:48:23;;;;;;;2.57;0.30;;;28.30;47.80;;;;;;5062740;27;89040;-52
2022/08/21 10:50:53;;;;;;;0.97;0.73;;;28.40;47.80;;;;;;5063049;27;87468;-52
2022/08/21 10:53:48;;;;;;;3.00;0.30;;;28.40;47.70;;;;;;5063522;27;87282;-52
2022/08/21 10:56:18;;;;;;;0.50;0.40;;;28.40;47.70;;;;;;5062938;27;87100;-51
2022/08/21 10:58:49;;;;;;;0.50;0.30;;;28.40;47.60;;;;;;5063316;27;88204;-52
2022/08/21 11:01:21;;;;;;;0.53;0.53;;;28.50;47.50;;;;;;5063601;27;88999;-52
2022/08/21 11:03:52;;;;;;;4.63;1.67;;;28.50;47.30;;;;;;5063570;27;87011;-52
2022/08/21 11:06:21;;;;;;;6.43;1.30;;;28.50;47.20;;;;;;5063851;27;86355;-53
2022/08/21 11:08:53;;;;;;;2.90;1.10;;;28.40;47.00;;;;;;5063296;27;89260;-51
2022/08/21 11:11:23;;;;;;;4.57;1.50;;;28.40;46.90;;;;;;5062656;27;87875;-51
2022/08/21 11:13:58;;;;;;;2.87;1.37;;;28.40;46.80;;;;;;5041640;27;88541;-51
2022/08/21 11:16:32;;;;;;;2.13;1.20;;;28.40;46.70;;;;;;5042045;28;87797;-52
2022/08/21 11:19:03;;;;;;;4.13;1.57;;;28.40;46.60;;;;;;5042239;28;89218;-51
2022/08/21 11:21:37;;;;;;;2.20;0.80;;;28.40;46.50;;;;;;5042692;28;87736;-52
2022/08/21 11:24:16;;;;;;;1.90;1.10;;;28.40;46.50;;;;;;5040423;28;87107;-52
2022/08/21 11:26:46;;;;;;;1.63;0.70;;;28.40;46.40;;;;;;5041787;28;87160;-51
2022/08/21 11:29:20;;;;;;;2.37;0.83;;;28.40;46.30;;;;;;5041891;28;88144;-51
2022/08/21 11:31:57;;;;;;;2.13;0.83;;;28.40;46.10;;;;;;5041855;28;87976;-52
2022/08/21 11:34:38;;;;;;;1.20;0.77;;;28.40;46.10;;;;;;5042225;28;87044;-52
2022/08/21 11:37:09;;;;;;;1.47;1.10;;;28.40;45.90;;;;;;5042295;28;87218;-53
2022/08/21 11:39:42;;;;;;;2.97;0.80;;;28.40;45.80;;;;;;5041728;28;90029;-51
2022/08/21 11:42:14;;;;;;;2.27;0.70;;;28.40;45.70;;;;;;5049073;27;90126;-52
2022/08/21 11:44:48;;;;;;;1.50;1.07;;;28.50;45.60;;;;;;5063453;27;86957;-51
2022/08/21 11:47:23;;;;;;;1.47;0.60;;;28.50;45.50;;;;;;5062010;27;87024;-53
2022/08/21 11:49:58;;;;;;;1.23;0.50;;;28.40;45.40;;;;;;5042217;28;89210;-52
2022/08/21 11:52:28;;;;;;;3.20;0.70;;;28.50;45.30;;;;;;5039584;28;87925;-52
2022/08/21 11:54:58;;;;;;;0.53;0.50;;;28.50;45.20;;;;;;5042794;28;87075;-52
2022/08/21 11:57:30;;;;;;;5.70;1.23;;;28.50;45.10;;;;;;5042134;27;86318;-53
2022/08/21 12:00:01;;;;;;;0.40;0.40;;;28.50;45.00;;;;;;5041070;28;88469;-51
2022/08/21 12:02:32;;;;;;;0.73;0.60;;;28.50;44.90;;;;;;5041095;28;89020;-52
2022/08/21 12:05:02;;;;;;;0.70;0.70;;;28.50;44.90;;;;;;5041989;28;88002;-52
2022/08/21 12:07:36;;;;;;;0.90;0.60;;;28.50;44.80;;;;;;5041983;28;87036;-52
2022/08/21 12:10:06;;;;;;;0.77;0.77;;;28.50;44.70;;;;;;5041933;28;88149;-52
2022/08/21 12:12:35;;;;;;;2.10;0.60;;;28.50;44.60;;;;;;5050164;27;87784;-51
2022/08/21 12:15:25;;;;;;;1.33;0.90;;;28.50;44.40;;;;;;5062250;27;87046;-51
2022/08/21 12:17:57;;;;;;;1.97;0.60;;;28.50;44.40;;;;;;5051601;27;87037;-56
2022/08/21 12:20:36;;;;;;;4.23;0.80;;;28.60;44.50;;;;;;5062350;27;89237;-51
2022/08/21 12:23:06;;;;;;;3.23;0.83;;;28.60;44.60;;;;;;5062405;27;87809;-51
2022/08/21 12:25:42;;;;;;;0.70;0.70;;;28.60;44.50;;;;;;5050842;27;87049;-51
2022/08/21 12:28:10;;;;;;;2.00;0.90;;;28.60;44.50;;;;;;5041830;28;86954;-53
2022/08/21 12:30:40;;;;;;;1.20;0.80;;;28.70;44.50;;;;;;5040543;28;90062;-51
2022/08/21 12:33:22;;;;;;;0.60;0.60;;;28.70;44.50;;;;;;5040374;28;88740;-53
2022/08/21 12:35:50;;;;;;;2.00;0.70;;;28.70;44.50;;;;;;5038799;28;87715;-53
2022/08/21 12:38:21;;;;;;;1.07;0.80;;;28.80;44.50;;;;;;5039676;27;87133;-52
2022/08/21 12:40:51;;;;;;;1.67;0.63;;;28.80;44.50;;;;;;5039516;27;89137;-53
2022/08/21 12:43:22;;;;;;;1.30;0.70;;;28.80;44.40;;;;;;5037213;28;88949;-51
2022/08/21 12:45:52;;;;;;;0.73;0.60;;;28.70;44.30;;;;;;5040445;28;87231;-51
2022/08/21 12:48:24;;;;;;;1.17;0.40;;;28.70;44.30;;;;;;5038036;28;86369;-51
2022/08/21 12:50:53;;;;;;;0.50;0.50;;;28.70;44.20;;;;;;5045200;27;89283;-52
2022/08/21 12:53:27;;;;;;;0.77;0.70;;;28.70;44.10;;;;;;5040953;27;87966;-52
2022/08/21 12:56:02;;;;;;;0.90;0.53;;;28.70;44.10;;;;;;5048362;27;87949;-51
2022/08/21 12:58:31;;;;;;;1.27;0.80;;;28.70;44.00;;;;;;5046628;27;87099;-52
2022/08/21 13:01:02;;;;;;;1.53;0.83;;;28.70;44.00;;;;;;5039106;27;88494;-53
2022/08/21 13:03:32;;;;;;;0.77;0.57;;;28.70;43.90;;;;;;5038974;28;87803;-51
2022/08/21 13:06:00;;;;;;;2.83;0.60;;;28.70;44.00;;;;;;5041197;28;87081;-51